sensor_id;sensor_type;location;lat;lon;timestamp;P1;durP1;ratioP1;P2;durP2;ratioP2
73747;SDS011;62056;52.130;5.428;2023-02-21T00:00:32;24.60;;;13.13;;
73747;SDS011;62056;52.130;5.428;2023-02-21T00:03:17;24.13;;;15.13;;
73747;SDS011;62056;52.130;5.428;2023-02-21T00:06:02;25.37;;;14.07;;
73747;SDS011;62056;52.130;5.428;2023-02-21T00:08:51;25.45;;;12.80;;
73747;SDS011;62056;52.130;5.428;2023-02-21T00:11:39;25.35;;;13.15;;
73747;SDS011;62056;52.130;5.428;2023-02-21T00:14:26;25.10;;;13.15;;
73747;SDS011;62056;52.130;5.428;2023-02-21T00:17:11;31.75;;;16.38;;
73747;SDS011;62056;52.130;5.428;2023-02-21T00:19:56;24.53;;;13.47;;
73747;SDS011;62056;52.130;5.428;2023-02-21T00:22:44;28.38;;;14.40;;
73747;SDS011;62056;52.130;5.428;2023-02-21T00:25:29;26.77;;;13.48;;
73747;SDS011;62056;52.130;5.428;2023-02-21T00:28:15;22.65;;;13.43;;
73747;SDS011;62056;52.130;5.428;2023-02-21T00:31:00;22.05;;;12.45;;
73747;SDS011;62056;52.130;5.428;2023-02-21T00:33:45;27.10;;;13.73;;
73747;SDS011;62056;52.130;5.428;2023-02-21T00:36:31;25.98;;;14.50;;
73747;SDS011;62056;52.130;5.428;2023-02-21T00:39:17;23.90;;;12.80;;
73747;SDS011;62056;52.130;5.428;2023-02-21T00:42:02;24.30;;;13.75;;
73747;SDS011;62056;52.130;5.428;2023-02-21T00:44:47;28.77;;;13.65;;
73747;SDS011;62056;52.130;5.428;2023-02-21T00:47:32;29.07;;;15.23;;
73747;SDS011;62056;52.130;5.428;2023-02-21T00:50:18;31.75;;;13.63;;
73747;SDS011;62056;52.130;5.428;2023-02-21T00:53:03;25.90;;;13.02;;
73747;SDS011;62056;52.130;5.428;2023-02-21T00:55:48;25.77;;;12.88;;
73747;SDS011;62056;52.130;5.428;2023-02-21T00:58:33;23.48;;;13.38;;
73747;SDS011;62056;52.130;5.428;2023-02-21T01:01:18;25.93;;;14.07;;
73747;SDS011;62056;52.130;5.428;2023-02-21T01:04:04;25.08;;;13.18;;
73747;SDS011;62056;52.130;5.428;2023-02-21T01:06:49;32.88;;;14.43;;
73747;SDS011;62056;52.130;5.428;2023-02-21T01:09:35;30.02;;;14.40;;
73747;SDS011;62056;52.130;5.428;2023-02-21T01:12:20;26.08;;;13.68;;
73747;SDS011;62056;52.130;5.428;2023-02-21T01:15:05;25.63;;;11.70;;
73747;SDS011;62056;52.130;5.428;2023-02-21T01:17:51;29.55;;;14.77;;
73747;SDS011;62056;52.130;5.428;2023-02-21T01:20:36;27.42;;;12.75;;
73747;SDS011;62056;52.130;5.428;2023-02-21T01:23:21;31.52;;;14.88;;
73747;SDS011;62056;52.130;5.428;2023-02-21T01:26:07;28.33;;;14.02;;
73747;SDS011;62056;52.130;5.428;2023-02-21T01:28:53;33.73;;;14.63;;
73747;SDS011;62056;52.130;5.428;2023-02-21T01:31:38;30.27;;;13.80;;
73747;SDS011;62056;52.130;5.428;2023-02-21T01:34:23;31.83;;;14.45;;
73747;SDS011;62056;52.130;5.428;2023-02-21T01:37:08;30.80;;;15.45;;
73747;SDS011;62056;52.130;5.428;2023-02-21T01:39:53;32.38;;;14.68;;
73747;SDS011;62056;52.130;5.428;2023-02-21T01:42:38;31.67;;;15.17;;
73747;SDS011;62056;52.130;5.428;2023-02-21T01:48:21;36.90;;;16.75;;
73747;SDS011;62056;52.130;5.428;2023-02-21T01:51:09;36.25;;;16.70;;
73747;SDS011;62056;52.130;5.428;2023-02-21T01:53:55;30.63;;;15.63;;
73747;SDS011;62056;52.130;5.428;2023-02-21T01:56:41;31.50;;;15.40;;
73747;SDS011;62056;52.130;5.428;2023-02-21T01:59:26;39.63;;;16.75;;
73747;SDS011;62056;52.130;5.428;2023-02-21T02:05:07;36.95;;;15.68;;
73747;SDS011;62056;52.130;5.428;2023-02-21T02:07:54;30.20;;;15.18;;
73747;SDS011;62056;52.130;5.428;2023-02-21T02:10:40;39.00;;;17.83;;
73747;SDS011;62056;52.130;5.428;2023-02-21T02:13:34;29.50;;;15.73;;
73747;SDS011;62056;52.130;5.428;2023-02-21T02:16:38;37.47;;;17.88;;
73747;SDS011;62056;52.130;5.428;2023-02-21T02:25:09;38.77;;;18.77;;
73747;SDS011;62056;52.130;5.428;2023-02-21T02:30:54;31.52;;;18.30;;
73747;SDS011;62056;52.130;5.428;2023-02-21T02:41:52;33.85;;;17.67;;
73747;SDS011;62056;52.130;5.428;2023-02-21T02:44:38;35.63;;;18.50;;
73747;SDS011;62056;52.130;5.428;2023-02-21T02:47:07;32.15;;;17.02;;
73747;SDS011;62056;52.130;5.428;2023-02-21T02:49:42;32.55;;;16.85;;
73747;SDS011;62056;52.130;5.428;2023-02-21T02:52:10;37.17;;;18.63;;
73747;SDS011;62056;52.130;5.428;2023-02-21T02:54:37;31.77;;;17.33;;
73747;SDS011;62056;52.130;5.428;2023-02-21T02:57:04;35.45;;;18.70;;
73747;SDS011;62056;52.130;5.428;2023-02-21T02:59:36;38.00;;;20.00;;
73747;SDS011;62056;52.130;5.428;2023-02-21T03:18:16;43.43;;;20.90;;
73747;SDS011;62056;52.130;5.428;2023-02-21T03:20:52;47.15;;;20.60;;
73747;SDS011;62056;52.130;5.428;2023-02-21T03:23:24;49.63;;;21.27;;
73747;SDS011;62056;52.130;5.428;2023-02-21T03:25:54;52.67;;;24.33;;
73747;SDS011;62056;52.130;5.428;2023-02-21T03:28:24;42.45;;;19.98;;
73747;SDS011;62056;52.130;5.428;2023-02-21T03:30:52;44.30;;;20.33;;
73747;SDS011;62056;52.130;5.428;2023-02-21T03:33:23;47.90;;;20.77;;
73747;SDS011;62056;52.130;5.428;2023-02-21T03:35:50;42.90;;;19.23;;
73747;SDS011;62056;52.130;5.428;2023-02-21T03:38:18;51.33;;;22.98;;
73747;SDS011;62056;52.130;5.428;2023-02-21T03:40:45;58.92;;;23.85;;
73747;SDS011;62056;52.130;5.428;2023-02-21T03:43:12;46.13;;;19.77;;
73747;SDS011;62056;52.130;5.428;2023-02-21T03:45:38;51.42;;;21.92;;
73747;SDS011;62056;52.130;5.428;2023-02-21T03:48:05;49.53;;;21.92;;
73747;SDS011;62056;52.130;5.428;2023-02-21T03:50:32;58.10;;;22.35;;
73747;SDS011;62056;52.130;5.428;2023-02-21T03:52:58;58.05;;;23.83;;
73747;SDS011;62056;52.130;5.428;2023-02-21T03:55:25;51.57;;;21.20;;
73747;SDS011;62056;52.130;5.428;2023-02-21T03:57:52;50.90;;;22.88;;
73747;SDS011;62056;52.130;5.428;2023-02-21T04:00:18;36.88;;;17.77;;
73747;SDS011;62056;52.130;5.428;2023-02-21T04:02:45;47.42;;;21.55;;
73747;SDS011;62056;52.130;5.428;2023-02-21T04:05:12;57.55;;;23.42;;
73747;SDS011;62056;52.130;5.428;2023-02-21T04:07:38;34.90;;;17.43;;
73747;SDS011;62056;52.130;5.428;2023-02-21T04:10:05;46.42;;;22.58;;
73747;SDS011;62056;52.130;5.428;2023-02-21T04:12:32;51.53;;;24.17;;
73747;SDS011;62056;52.130;5.428;2023-02-21T04:14:58;42.05;;;20.70;;
73747;SDS011;62056;52.130;5.428;2023-02-21T04:17:25;53.85;;;23.38;;
73747;SDS011;62056;52.130;5.428;2023-02-21T04:19:52;64.87;;;25.40;;
73747;SDS011;62056;52.130;5.428;2023-02-21T04:22:18;53.20;;;23.63;;
73747;SDS011;62056;52.130;5.428;2023-02-21T04:24:45;54.90;;;25.23;;
73747;SDS011;62056;52.130;5.428;2023-02-21T04:27:13;52.42;;;24.00;;
73747;SDS011;62056;52.130;5.428;2023-02-21T04:29:40;53.95;;;23.73;;
73747;SDS011;62056;52.130;5.428;2023-02-21T04:32:08;52.80;;;22.50;;
73747;SDS011;62056;52.130;5.428;2023-02-21T04:34:36;45.13;;;20.55;;
73747;SDS011;62056;52.130;5.428;2023-02-21T04:37:02;48.03;;;21.05;;
73747;SDS011;62056;52.130;5.428;2023-02-21T04:39:29;63.30;;;23.95;;
73747;SDS011;62056;52.130;5.428;2023-02-21T04:41:56;45.45;;;21.35;;
73747;SDS011;62056;52.130;5.428;2023-02-21T04:44:23;46.80;;;21.20;;
73747;SDS011;62056;52.130;5.428;2023-02-21T04:46:50;47.88;;;21.13;;
73747;SDS011;62056;52.130;5.428;2023-02-21T04:49:16;53.63;;;21.98;;
73747;SDS011;62056;52.130;5.428;2023-02-21T04:51:43;57.75;;;22.98;;
73747;SDS011;62056;52.130;5.428;2023-02-21T04:54:10;53.20;;;22.75;;
73747;SDS011;62056;52.130;5.428;2023-02-21T04:56:39;61.40;;;24.20;;
73747;SDS011;62056;52.130;5.428;2023-02-21T04:59:06;52.70;;;23.30;;
73747;SDS011;62056;52.130;5.428;2023-02-21T05:01:33;55.72;;;23.73;;
73747;SDS011;62056;52.130;5.428;2023-02-21T05:03:59;58.50;;;24.00;;
73747;SDS011;62056;52.130;5.428;2023-02-21T05:06:27;51.13;;;22.45;;
73747;SDS011;62056;52.130;5.428;2023-02-21T05:08:54;53.17;;;23.30;;
73747;SDS011;62056;52.130;5.428;2023-02-21T05:11:22;42.08;;;20.58;;
73747;SDS011;62056;52.130;5.428;2023-02-21T05:13:49;54.33;;;22.75;;
73747;SDS011;62056;52.130;5.428;2023-02-21T05:16:16;49.30;;;22.60;;
73747;SDS011;62056;52.130;5.428;2023-02-21T05:18:44;60.40;;;23.52;;
73747;SDS011;62056;52.130;5.428;2023-02-21T05:21:13;53.53;;;23.57;;
73747;SDS011;62056;52.130;5.428;2023-02-21T05:23:42;55.53;;;22.60;;
73747;SDS011;62056;52.130;5.428;2023-02-21T05:26:22;48.60;;;20.60;;
73747;SDS011;62056;52.130;5.428;2023-02-21T05:28:51;57.35;;;22.80;;
73747;SDS011;62056;52.130;5.428;2023-02-21T05:31:18;55.22;;;21.85;;
73747;SDS011;62056;52.130;5.428;2023-02-21T05:33:45;57.35;;;23.77;;
73747;SDS011;62056;52.130;5.428;2023-02-21T05:36:11;52.90;;;22.23;;
73747;SDS011;62056;52.130;5.428;2023-02-21T05:38:45;51.73;;;22.97;;
73747;SDS011;62056;52.130;5.428;2023-02-21T05:41:16;55.95;;;23.38;;
73747;SDS011;62056;52.130;5.428;2023-02-21T05:43:47;68.68;;;24.60;;
73747;SDS011;62056;52.130;5.428;2023-02-21T05:48:55;45.35;;;20.85;;
73747;SDS011;62056;52.130;5.428;2023-02-21T05:51:23;53.57;;;22.03;;
73747;SDS011;62056;52.130;5.428;2023-02-21T05:53:50;53.67;;;22.23;;
73747;SDS011;62056;52.130;5.428;2023-02-21T05:56:17;70.40;;;24.40;;
73747;SDS011;62056;52.130;5.428;2023-02-21T05:58:46;60.15;;;24.27;;
73747;SDS011;62056;52.130;5.428;2023-02-21T06:01:13;62.47;;;24.13;;
73747;SDS011;62056;52.130;5.428;2023-02-21T06:03:40;63.83;;;24.00;;
73747;SDS011;62056;52.130;5.428;2023-02-21T06:06:07;55.33;;;22.13;;
73747;SDS011;62056;52.130;5.428;2023-02-21T06:08:41;60.50;;;23.77;;
73747;SDS011;62056;52.130;5.428;2023-02-21T06:11:08;62.15;;;23.95;;
73747;SDS011;62056;52.130;5.428;2023-02-21T06:13:35;61.25;;;24.67;;
73747;SDS011;62056;52.130;5.428;2023-02-21T06:16:02;63.13;;;25.73;;
73747;SDS011;62056;52.130;5.428;2023-02-21T06:18:28;62.30;;;23.75;;
73747;SDS011;62056;52.130;5.428;2023-02-21T06:20:55;46.92;;;21.58;;
73747;SDS011;62056;52.130;5.428;2023-02-21T06:23:22;63.80;;;24.33;;
73747;SDS011;62056;52.130;5.428;2023-02-21T06:25:48;66.18;;;24.27;;
73747;SDS011;62056;52.130;5.428;2023-02-21T06:28:15;60.33;;;23.10;;
73747;SDS011;62056;52.130;5.428;2023-02-21T06:30:41;68.32;;;25.40;;
73747;SDS011;62056;52.130;5.428;2023-02-21T06:33:08;59.78;;;24.48;;
73747;SDS011;62056;52.130;5.428;2023-02-21T06:35:35;56.22;;;22.98;;
73747;SDS011;62056;52.130;5.428;2023-02-21T06:38:01;61.47;;;23.55;;
73747;SDS011;62056;52.130;5.428;2023-02-21T06:40:28;52.73;;;23.50;;
73747;SDS011;62056;52.130;5.428;2023-02-21T06:42:55;63.88;;;24.45;;
73747;SDS011;62056;52.130;5.428;2023-02-21T06:45:21;72.75;;;26.50;;
73747;SDS011;62056;52.130;5.428;2023-02-21T06:47:48;64.43;;;23.55;;
73747;SDS011;62056;52.130;5.428;2023-02-21T06:50:14;57.75;;;22.42;;
73747;SDS011;62056;52.130;5.428;2023-02-21T06:52:42;57.87;;;22.17;;
73747;SDS011;62056;52.130;5.428;2023-02-21T06:55:09;61.92;;;23.02;;
73747;SDS011;62056;52.130;5.428;2023-02-21T06:57:35;56.50;;;23.33;;
73747;SDS011;62056;52.130;5.428;2023-02-21T07:00:03;66.78;;;24.60;;
73747;SDS011;62056;52.130;5.428;2023-02-21T07:02:30;67.55;;;25.85;;
73747;SDS011;62056;52.130;5.428;2023-02-21T07:04:57;65.77;;;25.30;;
73747;SDS011;62056;52.130;5.428;2023-02-21T07:07:24;67.43;;;25.25;;
73747;SDS011;62056;52.130;5.428;2023-02-21T07:09:50;75.47;;;27.58;;
73747;SDS011;62056;52.130;5.428;2023-02-21T07:12:17;73.32;;;27.20;;
73747;SDS011;62056;52.130;5.428;2023-02-21T07:14:44;78.00;;;26.50;;
73747;SDS011;62056;52.130;5.428;2023-02-21T07:17:10;71.33;;;25.90;;
73747;SDS011;62056;52.130;5.428;2023-02-21T07:19:37;72.53;;;26.05;;
73747;SDS011;62056;52.130;5.428;2023-02-21T07:22:03;80.55;;;27.15;;
73747;SDS011;62056;52.130;5.428;2023-02-21T07:24:30;73.57;;;26.35;;
73747;SDS011;62056;52.130;5.428;2023-02-21T07:26:57;76.18;;;27.42;;
73747;SDS011;62056;52.130;5.428;2023-02-21T07:29:24;61.60;;;24.53;;
73747;SDS011;62056;52.130;5.428;2023-02-21T07:31:51;72.22;;;25.75;;
73747;SDS011;62056;52.130;5.428;2023-02-21T07:34:18;68.53;;;25.20;;
73747;SDS011;62056;52.130;5.428;2023-02-21T07:36:45;71.50;;;25.55;;
73747;SDS011;62056;52.130;5.428;2023-02-21T07:39:12;75.38;;;28.52;;
73747;SDS011;62056;52.130;5.428;2023-02-21T07:41:39;75.67;;;27.53;;
73747;SDS011;62056;52.130;5.428;2023-02-21T07:44:06;82.25;;;28.15;;
73747;SDS011;62056;52.130;5.428;2023-02-21T07:46:33;73.47;;;28.70;;
73747;SDS011;62056;52.130;5.428;2023-02-21T07:49:00;75.95;;;26.92;;
73747;SDS011;62056;52.130;5.428;2023-02-21T07:51:27;86.82;;;29.75;;
73747;SDS011;62056;52.130;5.428;2023-02-21T07:53:57;76.77;;;28.23;;
73747;SDS011;62056;52.130;5.428;2023-02-21T07:56:24;78.15;;;28.85;;
73747;SDS011;62056;52.130;5.428;2023-02-21T07:58:51;88.05;;;28.23;;
73747;SDS011;62056;52.130;5.428;2023-02-21T08:01:20;67.82;;;24.83;;
73747;SDS011;62056;52.130;5.428;2023-02-21T08:03:49;73.95;;;26.42;;
73747;SDS011;62056;52.130;5.428;2023-02-21T08:06:16;78.13;;;27.83;;
73747;SDS011;62056;52.130;5.428;2023-02-21T08:08:44;76.45;;;27.10;;
73747;SDS011;62056;52.130;5.428;2023-02-21T08:11:10;71.43;;;26.48;;
73747;SDS011;62056;52.130;5.428;2023-02-21T08:13:38;66.95;;;26.90;;
73747;SDS011;62056;52.130;5.428;2023-02-21T08:16:04;75.93;;;27.95;;
73747;SDS011;62056;52.130;5.428;2023-02-21T08:18:31;81.80;;;30.00;;
73747;SDS011;62056;52.130;5.428;2023-02-21T08:20:58;84.90;;;30.55;;
73747;SDS011;62056;52.130;5.428;2023-02-21T08:23:25;73.95;;;28.00;;
73747;SDS011;62056;52.130;5.428;2023-02-21T08:25:52;70.20;;;28.48;;
73747;SDS011;62056;52.130;5.428;2023-02-21T08:28:18;70.65;;;28.08;;
73747;SDS011;62056;52.130;5.428;2023-02-21T08:30:45;71.83;;;24.73;;
73747;SDS011;62056;52.130;5.428;2023-02-21T08:33:12;73.53;;;28.35;;
73747;SDS011;62056;52.130;5.428;2023-02-21T08:35:39;75.38;;;28.70;;
73747;SDS011;62056;52.130;5.428;2023-02-21T08:38:06;65.57;;;24.10;;
73747;SDS011;62056;52.130;5.428;2023-02-21T08:40:33;73.05;;;28.83;;
73747;SDS011;62056;52.130;5.428;2023-02-21T08:43:00;69.67;;;26.33;;
73747;SDS011;62056;52.130;5.428;2023-02-21T08:45:27;68.13;;;26.60;;
73747;SDS011;62056;52.130;5.428;2023-02-21T08:47:55;58.05;;;24.20;;
73747;SDS011;62056;52.130;5.428;2023-02-21T08:50:24;62.22;;;23.92;;
73747;SDS011;62056;52.130;5.428;2023-02-21T08:52:52;69.82;;;25.67;;
73747;SDS011;62056;52.130;5.428;2023-02-21T08:55:20;57.20;;;23.63;;
73747;SDS011;62056;52.130;5.428;2023-02-21T08:57:48;54.05;;;21.70;;
73747;SDS011;62056;52.130;5.428;2023-02-21T09:00:22;55.63;;;22.45;;
73747;SDS011;62056;52.130;5.428;2023-02-21T09:03:01;54.03;;;22.10;;
73747;SDS011;62056;52.130;5.428;2023-02-21T09:05:41;54.95;;;21.27;;
73747;SDS011;62056;52.130;5.428;2023-02-21T09:08:07;54.23;;;21.90;;
73747;SDS011;62056;52.130;5.428;2023-02-21T09:10:35;50.03;;;20.67;;
73747;SDS011;62056;52.130;5.428;2023-02-21T09:13:04;58.70;;;23.40;;
73747;SDS011;62056;52.130;5.428;2023-02-21T09:15:32;49.00;;;20.00;;
73747;SDS011;62056;52.130;5.428;2023-02-21T09:17:58;49.53;;;22.10;;
73747;SDS011;62056;52.130;5.428;2023-02-21T09:20:26;46.67;;;20.90;;
73747;SDS011;62056;52.130;5.428;2023-02-21T09:22:53;47.92;;;20.08;;
73747;SDS011;62056;52.130;5.428;2023-02-21T09:25:21;42.78;;;17.90;;
73747;SDS011;62056;52.130;5.428;2023-02-21T09:27:50;40.80;;;19.38;;
73747;SDS011;62056;52.130;5.428;2023-02-21T09:30:20;38.80;;;17.05;;
73747;SDS011;62056;52.130;5.428;2023-02-21T09:32:50;42.83;;;18.90;;
73747;SDS011;62056;52.130;5.428;2023-02-21T09:35:17;44.75;;;19.88;;
73747;SDS011;62056;52.130;5.428;2023-02-21T09:37:44;46.92;;;19.63;;
73747;SDS011;62056;52.130;5.428;2023-02-21T09:40:17;36.78;;;16.40;;
73747;SDS011;62056;52.130;5.428;2023-02-21T09:42:59;34.70;;;16.48;;
73747;SDS011;62056;52.130;5.428;2023-02-21T09:45:29;44.80;;;18.30;;
73747;SDS011;62056;52.130;5.428;2023-02-21T09:48:10;44.00;;;17.92;;
73747;SDS011;62056;52.130;5.428;2023-02-21T09:51:02;45.15;;;17.63;;
73747;SDS011;62056;52.130;5.428;2023-02-21T09:53:34;46.63;;;19.52;;
73747;SDS011;62056;52.130;5.428;2023-02-21T09:56:05;44.28;;;20.17;;
73747;SDS011;62056;52.130;5.428;2023-02-21T09:58:40;50.57;;;22.30;;
73747;SDS011;62056;52.130;5.428;2023-02-21T10:01:22;42.92;;;18.65;;
73747;SDS011;62056;52.130;5.428;2023-02-21T10:03:58;44.33;;;18.60;;
73747;SDS011;62056;52.130;5.428;2023-02-21T10:06:33;45.30;;;19.92;;
73747;SDS011;62056;52.130;5.428;2023-02-21T10:12:07;40.73;;;18.23;;
73747;SDS011;62056;52.130;5.428;2023-02-21T10:14:59;40.67;;;17.45;;
73747;SDS011;62056;52.130;5.428;2023-02-21T10:18:07;40.55;;;17.20;;
73747;SDS011;62056;52.130;5.428;2023-02-21T10:20:47;53.67;;;21.48;;
73747;SDS011;62056;52.130;5.428;2023-02-21T10:23:17;41.10;;;17.90;;
73747;SDS011;62056;52.130;5.428;2023-02-21T10:25:56;47.53;;;19.57;;
73747;SDS011;62056;52.130;5.428;2023-02-21T10:28:28;40.85;;;19.13;;
73747;SDS011;62056;52.130;5.428;2023-02-21T10:30:57;45.50;;;20.02;;
73747;SDS011;62056;52.130;5.428;2023-02-21T10:33:26;48.13;;;20.15;;
73747;SDS011;62056;52.130;5.428;2023-02-21T10:35:54;36.85;;;16.20;;
73747;SDS011;62056;52.130;5.428;2023-02-21T10:38:25;43.00;;;18.30;;
73747;SDS011;62056;52.130;5.428;2023-02-21T10:40:54;41.63;;;17.73;;
73747;SDS011;62056;52.130;5.428;2023-02-21T10:49:03;49.95;;;20.02;;
73747;SDS011;62056;52.130;5.428;2023-02-21T10:51:43;41.87;;;18.70;;
73747;SDS011;62056;52.130;5.428;2023-02-21T10:56:43;41.67;;;19.55;;
73747;SDS011;62056;52.130;5.428;2023-02-21T10:59:10;47.38;;;22.10;;
73747;SDS011;62056;52.130;5.428;2023-02-21T11:01:47;43.33;;;19.20;;
73747;SDS011;62056;52.130;5.428;2023-02-21T11:06:50;42.95;;;17.48;;
73747;SDS011;62056;52.130;5.428;2023-02-21T11:11:59;45.22;;;18.55;;
73747;SDS011;62056;52.130;5.428;2023-02-21T11:14:31;47.30;;;20.90;;
73747;SDS011;62056;52.130;5.428;2023-02-21T11:17:03;39.30;;;18.50;;
73747;SDS011;62056;52.130;5.428;2023-02-21T11:19:41;47.70;;;21.40;;
73747;SDS011;62056;52.130;5.428;2023-02-21T11:22:12;40.55;;;17.75;;
73747;SDS011;62056;52.130;5.428;2023-02-21T11:24:44;42.25;;;19.58;;
73747;SDS011;62056;52.130;5.428;2023-02-21T11:27:11;40.88;;;16.85;;
73747;SDS011;62056;52.130;5.428;2023-02-21T11:29:40;49.37;;;21.17;;
73747;SDS011;62056;52.130;5.428;2023-02-21T11:32:15;50.33;;;21.35;;
73747;SDS011;62056;52.130;5.428;2023-02-21T11:35:00;58.65;;;21.48;;
73747;SDS011;62056;52.130;5.428;2023-02-21T11:37:28;50.08;;;21.75;;
73747;SDS011;62056;52.130;5.428;2023-02-21T11:39:57;48.22;;;20.23;;
73747;SDS011;62056;52.130;5.428;2023-02-21T11:42:30;45.83;;;19.37;;
73747;SDS011;62056;52.130;5.428;2023-02-21T11:45:05;47.30;;;20.65;;
73747;SDS011;62056;52.130;5.428;2023-02-21T11:47:51;48.83;;;22.17;;
73747;SDS011;62056;52.130;5.428;2023-02-21T11:52:53;58.88;;;22.08;;
73747;SDS011;62056;52.130;5.428;2023-02-21T11:55:23;49.47;;;19.73;;
73747;SDS011;62056;52.130;5.428;2023-02-21T11:57:59;49.92;;;19.00;;
73747;SDS011;62056;52.130;5.428;2023-02-21T12:01:00;46.42;;;20.08;;
73747;SDS011;62056;52.130;5.428;2023-02-21T12:17:08;46.00;;;19.42;;
73747;SDS011;62056;52.130;5.428;2023-02-21T12:25:36;54.05;;;21.27;;
73747;SDS011;62056;52.130;5.428;2023-02-21T12:28:39;53.65;;;20.80;;
73747;SDS011;62056;52.130;5.428;2023-02-21T12:34:12;54.83;;;21.10;;
73747;SDS011;62056;52.130;5.428;2023-02-21T12:36:58;59.47;;;22.63;;
73747;SDS011;62056;52.130;5.428;2023-02-21T12:39:50;57.00;;;22.23;;
73747;SDS011;62056;52.130;5.428;2023-02-21T12:45:36;50.47;;;20.00;;
73747;SDS011;62056;52.130;5.428;2023-02-21T12:48:29;55.42;;;21.10;;
73747;SDS011;62056;52.130;5.428;2023-02-21T12:51:03;49.30;;;19.67;;
73747;SDS011;62056;52.130;5.428;2023-02-21T12:53:40;54.30;;;20.65;;
73747;SDS011;62056;52.130;5.428;2023-02-21T12:58:40;40.30;;;14.88;;
73747;SDS011;62056;52.130;5.428;2023-02-21T13:01:13;47.88;;;18.40;;
73747;SDS011;62056;52.130;5.428;2023-02-21T13:03:51;50.97;;;21.03;;
73747;SDS011;62056;52.130;5.428;2023-02-21T13:06:27;48.40;;;18.70;;
73747;SDS011;62056;52.130;5.428;2023-02-21T13:11:54;43.63;;;17.58;;
73747;SDS011;62056;52.130;5.428;2023-02-21T13:14:36;40.17;;;17.85;;
73747;SDS011;62056;52.130;5.428;2023-02-21T13:17:11;33.00;;;14.23;;
73747;SDS011;62056;52.130;5.428;2023-02-21T13:22:27;30.23;;;13.32;;
73747;SDS011;62056;52.130;5.428;2023-02-21T13:25:19;20.63;;;10.15;;
73747;SDS011;62056;52.130;5.428;2023-02-21T13:28:00;25.35;;;10.63;;
73747;SDS011;62056;52.130;5.428;2023-02-21T13:30:37;20.83;;;9.80;;
73747;SDS011;62056;52.130;5.428;2023-02-21T13:33:05;18.05;;;8.43;;
73747;SDS011;62056;52.130;5.428;2023-02-21T13:35:34;17.15;;;8.77;;
73747;SDS011;62056;52.130;5.428;2023-02-21T13:38:05;19.77;;;8.73;;
73747;SDS011;62056;52.130;5.428;2023-02-21T13:40:36;17.58;;;8.27;;
73747;SDS011;62056;52.130;5.428;2023-02-21T13:45:38;12.50;;;7.00;;
73747;SDS011;62056;52.130;5.428;2023-02-21T13:55:34;11.53;;;6.67;;
73747;SDS011;62056;52.130;5.428;2023-02-21T14:08:27;13.87;;;6.23;;
73747;SDS011;62056;52.130;5.428;2023-02-21T14:16:22;13.35;;;8.25;;
73747;SDS011;62056;52.130;5.428;2023-02-21T14:21:28;15.67;;;7.60;;
73747;SDS011;62056;52.130;5.428;2023-02-21T14:24:07;13.23;;;7.05;;
73747;SDS011;62056;52.130;5.428;2023-02-21T14:34:31;16.40;;;9.37;;
73747;SDS011;62056;52.130;5.428;2023-02-21T14:37:01;17.70;;;10.20;;
73747;SDS011;62056;52.130;5.428;2023-02-21T14:39:39;19.50;;;9.40;;
73747;SDS011;62056;52.130;5.428;2023-02-21T14:42:16;14.02;;;8.20;;
73747;SDS011;62056;52.130;5.428;2023-02-21T14:45:03;17.65;;;9.45;;
73747;SDS011;62056;52.130;5.428;2023-02-21T14:58:38;13.50;;;8.98;;
73747;SDS011;62056;52.130;5.428;2023-02-21T15:04:38;18.25;;;10.65;;
73747;SDS011;62056;52.130;5.428;2023-02-21T15:07:16;18.35;;;9.70;;
73747;SDS011;62056;52.130;5.428;2023-02-21T15:12:51;13.90;;;8.75;;
73747;SDS011;62056;52.130;5.428;2023-02-21T15:15:25;17.83;;;9.23;;
73747;SDS011;62056;52.130;5.428;2023-02-21T15:20:41;16.65;;;9.23;;
73747;SDS011;62056;52.130;5.428;2023-02-21T15:25:36;15.05;;;8.77;;
73747;SDS011;62056;52.130;5.428;2023-02-21T15:28:04;11.50;;;7.57;;
73747;SDS011;62056;52.130;5.428;2023-02-21T15:30:34;10.75;;;6.70;;
73747;SDS011;62056;52.130;5.428;2023-02-21T15:33:06;8.00;;;5.55;;
73747;SDS011;62056;52.130;5.428;2023-02-21T15:35:35;9.23;;;5.65;;
73747;SDS011;62056;52.130;5.428;2023-02-21T15:38:08;9.82;;;5.82;;
73747;SDS011;62056;52.130;5.428;2023-02-21T15:40:42;7.67;;;6.20;;
73747;SDS011;62056;52.130;5.428;2023-02-21T15:43:13;6.50;;;4.95;;
73747;SDS011;62056;52.130;5.428;2023-02-21T15:45:50;5.45;;;4.25;;
73747;SDS011;62056;52.130;5.428;2023-02-21T15:48:18;7.20;;;4.85;;
73747;SDS011;62056;52.130;5.428;2023-02-21T15:50:45;4.95;;;4.45;;
73747;SDS011;62056;52.130;5.428;2023-02-21T15:53:20;5.50;;;4.63;;
73747;SDS011;62056;52.130;5.428;2023-02-21T15:55:49;7.10;;;5.15;;
73747;SDS011;62056;52.130;5.428;2023-02-21T16:01:03;6.75;;;4.07;;
73747;SDS011;62056;52.130;5.428;2023-02-21T16:06:12;4.60;;;4.00;;
73747;SDS011;62056;52.130;5.428;2023-02-21T16:08:51;6.72;;;4.60;;
73747;SDS011;62056;52.130;5.428;2023-02-21T16:11:18;6.03;;;4.68;;
73747;SDS011;62056;52.130;5.428;2023-02-21T16:13:45;5.90;;;5.03;;
73747;SDS011;62056;52.130;5.428;2023-02-21T16:16:13;5.75;;;4.90;;
73747;SDS011;62056;52.130;5.428;2023-02-21T16:18:40;10.70;;;6.07;;
73747;SDS011;62056;52.130;5.428;2023-02-21T16:21:20;5.65;;;4.95;;
73747;SDS011;62056;52.130;5.428;2023-02-21T16:23:51;5.57;;;4.97;;
73747;SDS011;62056;52.130;5.428;2023-02-21T16:26:22;5.00;;;4.20;;
73747;SDS011;62056;52.130;5.428;2023-02-21T16:28:54;5.63;;;3.95;;
73747;SDS011;62056;52.130;5.428;2023-02-21T16:31:25;5.20;;;4.33;;
73747;SDS011;62056;52.130;5.428;2023-02-21T16:33:57;4.57;;;4.07;;
73747;SDS011;62056;52.130;5.428;2023-02-21T16:36:25;6.45;;;4.13;;
73747;SDS011;62056;52.130;5.428;2023-02-21T16:38:58;5.95;;;3.97;;
73747;SDS011;62056;52.130;5.428;2023-02-21T16:41:30;7.65;;;4.32;;
73747;SDS011;62056;52.130;5.428;2023-02-21T16:43:57;6.10;;;4.83;;
73747;SDS011;62056;52.130;5.428;2023-02-21T16:46:27;6.78;;;4.93;;
73747;SDS011;62056;52.130;5.428;2023-02-21T16:48:57;7.80;;;5.18;;
73747;SDS011;62056;52.130;5.428;2023-02-21T16:51:25;7.95;;;5.22;;
73747;SDS011;62056;52.130;5.428;2023-02-21T16:54:01;5.05;;;4.55;;
73747;SDS011;62056;52.130;5.428;2023-02-21T16:56:29;5.17;;;4.30;;
73747;SDS011;62056;52.130;5.428;2023-02-21T16:58:56;6.57;;;5.40;;
73747;SDS011;62056;52.130;5.428;2023-02-21T17:01:28;11.02;;;6.72;;
73747;SDS011;62056;52.130;5.428;2023-02-21T17:03:58;9.90;;;5.53;;
73747;SDS011;62056;52.130;5.428;2023-02-21T17:06:27;7.80;;;5.88;;
73747;SDS011;62056;52.130;5.428;2023-02-21T17:08:54;6.60;;;5.90;;
73747;SDS011;62056;52.130;5.428;2023-02-21T17:11:22;9.57;;;6.20;;
73747;SDS011;62056;52.130;5.428;2023-02-21T17:13:50;12.98;;;6.68;;
73747;SDS011;62056;52.130;5.428;2023-02-21T17:16:19;9.05;;;5.75;;
73747;SDS011;62056;52.130;5.428;2023-02-21T17:18:46;8.70;;;5.72;;
73747;SDS011;62056;52.130;5.428;2023-02-21T17:21:13;6.10;;;4.70;;
73747;SDS011;62056;52.130;5.428;2023-02-21T17:23:46;6.18;;;5.38;;
73747;SDS011;62056;52.130;5.428;2023-02-21T17:26:16;7.57;;;5.93;;
73747;SDS011;62056;52.130;5.428;2023-02-21T17:28:43;5.45;;;4.55;;
73747;SDS011;62056;52.130;5.428;2023-02-21T17:31:13;9.02;;;6.30;;
73747;SDS011;62056;52.130;5.428;2023-02-21T17:33:48;8.33;;;6.17;;
73747;SDS011;62056;52.130;5.428;2023-02-21T17:36:19;6.32;;;5.60;;